Terminal Aerodrome Forecast
Issued by NWS

Home | Current Version | Previous Version | Text Only | Print | Product List | Glossary Off
Versions: 1 2 3 4 5 6 7 8 9 10 11 12 13 14 15 16

451
FTUS41 KCLE 152320
TAFFDY
TAF
KFDY 152320Z 1600/1624 VRB03KT P6SM SCT200
     FM160700 VRB03KT 4SM BR SCT200
     FM160900 VRB03KT 2SM BR SCT200
     FM161200 09004KT 1 1/2SM BR SCT250
     FM161300 09005KT 4SM BR SCT250
     FM161400 09005KT P6SM SCT150
     FM162100 10005KT P6SM BKN080
     FM162200 10006KT P6SM SCT100=

USA.gov is the U.S. government's official web portal to all federal, state and local government web resources and services.